createdAt,value
2022-10-31T00:00:05.423Z,65.85
2022-10-31T00:01:25.880Z,65.84
2022-10-31T00:02:28.153Z,65.80
2022-10-31T00:03:30.455Z,65.86
2022-10-31T00:04:32.722Z,65.87
2022-10-31T00:05:34.942Z,65.93
2022-10-31T00:06:37.911Z,65.82
2022-10-31T00:07:40.096Z,65.70
2022-10-31T00:08:42.302Z,65.92
2022-10-31T00:09:44.480Z,65.68
2022-10-31T00:10:47.604Z,65.83
2022-10-31T00:11:49.797Z,65.63
2022-10-31T00:12:53.231Z,65.68
2022-10-31T00:13:55.543Z,65.91
2022-10-31T00:14:57.740Z,66.03
2022-10-31T00:15:59.941Z,65.99
2022-10-31T00:17:03.173Z,65.87
2022-10-31T00:18:06.439Z,66.07
2022-10-31T00:19:10.115Z,66.11
2022-10-31T00:20:12.319Z,65.90
2022-10-31T00:21:15.814Z,66.07
2022-10-31T00:22:18.019Z,65.87
2022-10-31T00:23:20.204Z,65.97
2022-10-31T00:24:22.443Z,66.05
2022-10-31T00:25:24.699Z,66.00
2022-10-31T00:26:31.247Z,66.24
2022-10-31T00:27:34.121Z,66.14
2022-10-31T00:28:36.797Z,66.16
2022-10-31T00:29:39.990Z,66.04
2022-10-31T00:30:42.247Z,66.10
2022-10-31T00:31:44.526Z,66.01
2022-10-31T00:32:46.760Z,66.06
2022-10-31T00:33:49.126Z,66.10
2022-10-31T00:34:53.363Z,66.11
2022-10-31T00:35:55.673Z,66.39
2022-10-31T00:36:57.913Z,66.19
2022-10-31T00:38:00.431Z,66.31
2022-10-31T00:39:02.755Z,66.50
2022-10-31T00:40:05.515Z,66.32
2022-10-31T00:41:08.064Z,66.36
2022-10-31T00:42:10.246Z,66.55
2022-10-31T00:44:34.575Z,66.37
2022-10-31T00:45:36.753Z,66.51
2022-10-31T00:46:38.989Z,66.43
2022-10-31T00:47:41.167Z,66.41
2022-10-31T00:48:43.945Z,66.53
2022-10-31T00:49:46.488Z,66.55
2022-10-31T00:50:48.717Z,66.49
2022-10-31T00:51:51.024Z,66.58
2022-10-31T00:52:53.265Z,66.32
2022-10-31T00:53:55.593Z,66.41
2022-10-31T00:54:57.861Z,66.63
2022-10-31T00:56:00.705Z,66.75
2022-10-31T00:57:04.341Z,66.79
2022-10-31T00:58:06.573Z,66.77
2022-10-31T00:59:08.823Z,66.56
2022-10-31T01:00:11.917Z,66.88
2022-10-31T01:01:16.533Z,66.64
2022-10-31T01:02:19.053Z,66.60
2022-10-31T01:03:30.286Z,66.67
2022-10-31T01:04:32.647Z,66.79
2022-10-31T01:05:34.871Z,66.51
2022-10-31T01:06:37.933Z,66.78
2022-10-31T01:07:42.571Z,66.78
2022-10-31T01:08:45.345Z,66.79
2022-10-31T01:09:50.157Z,66.68
2022-10-31T01:11:14.820Z,66.67
2022-10-31T01:12:17.178Z,66.58
2022-10-31T01:13:19.371Z,66.55
2022-10-31T01:14:21.607Z,66.81
2022-10-31T01:15:24.420Z,66.74
2022-10-31T01:16:30.492Z,66.67
2022-10-31T01:17:33.620Z,66.79
2022-10-31T01:18:36.923Z,66.84
2022-10-31T01:19:39.095Z,67.00
2022-10-31T01:20:41.301Z,66.81
2022-10-31T01:21:43.475Z,66.86
2022-10-31T01:22:45.853Z,67.01
2022-10-31T01:23:51.309Z,66.80
2022-10-31T01:24:53.523Z,67.06
2022-10-31T01:26:12.447Z,67.10
2022-10-31T01:27:16.199Z,67.06
2022-10-31T01:28:18.435Z,67.01
2022-10-31T01:29:20.740Z,67.11
2022-10-31T01:30:22.975Z,67.14
2022-10-31T01:31:28.533Z,66.94
2022-10-31T01:32:30.862Z,67.11
2022-10-31T01:33:35.091Z,66.89
2022-10-31T01:34:37.378Z,67.04
2022-10-31T01:35:39.582Z,67.22
2022-10-31T01:36:42.897Z,67.19
2022-10-31T01:37:45.628Z,67.15
2022-10-31T01:38:49.368Z,67.19
2022-10-31T01:39:51.631Z,67.04
2022-10-31T01:40:54.072Z,67.31
2022-10-31T01:41:56.258Z,67.07
2022-10-31T01:42:58.763Z,67.07
2022-10-31T01:44:22.890Z,67.10
2022-10-31T01:45:25.476Z,67.25
2022-10-31T01:46:46.021Z,67.12
2022-10-31T01:47:49.791Z,67.14
2022-10-31T01:48:55.103Z,67.15
2022-10-31T01:50:01.745Z,67.13
2022-10-31T01:51:06.024Z,67.18
2022-10-31T01:52:34.102Z,67.16
2022-10-31T01:53:37.725Z,67.29
2022-10-31T01:54:44.299Z,67.17
2022-10-31T01:55:47.706Z,67.15
2022-10-31T01:56:56.739Z,67.21
2022-10-31T01:58:05.726Z,67.40
2022-10-31T01:59:11.951Z,67.25
2022-10-31T02:00:17.219Z,67.36
2022-10-31T02:01:19.696Z,67.44
2022-10-31T02:02:22.298Z,67.41
2022-10-31T02:03:27.196Z,67.28
2022-10-31T02:04:30.778Z,67.12
2022-10-31T02:05:34.919Z,67.26
2022-10-31T02:06:44.298Z,67.27
2022-10-31T02:08:09.338Z,67.40
2022-10-31T02:09:13.902Z,67.36
2022-10-31T02:10:16.509Z,67.44
2022-10-31T02:11:18.729Z,67.25
2022-10-31T02:12:22.490Z,67.33
2022-10-31T02:14:48.473Z,67.35
2022-10-31T02:15:57.228Z,67.20
2022-10-31T02:16:59.648Z,67.35
2022-10-31T02:18:02.427Z,67.46
2022-10-31T02:19:11.899Z,67.57
2022-10-31T02:20:17.331Z,67.51
2022-10-31T02:21:33.285Z,67.45
2022-10-31T02:22:40.923Z,67.61
2022-10-31T02:24:22.916Z,67.39
2022-10-31T02:25:40.325Z,67.43
2022-10-31T02:26:46.316Z,67.50
2022-10-31T02:28:03.205Z,67.43
2022-10-31T02:29:28.376Z,67.38
2022-10-31T02:31:13.893Z,67.45
2022-10-31T02:32:47.501Z,67.34
2022-10-31T02:33:58.168Z,67.35
2022-10-31T02:35:27.715Z,67.74
2022-10-31T02:36:44.232Z,67.59
2022-10-31T02:38:20.565Z,67.50
2022-10-31T02:39:34.677Z,67.41
2022-10-31T02:40:54.138Z,67.72
2022-10-31T02:42:30.379Z,67.67
2022-10-31T02:43:41.303Z,67.52
2022-10-31T02:44:52.311Z,67.64
2022-10-31T02:45:57.298Z,67.77
2022-10-31T02:47:14.862Z,67.78
2022-10-31T02:48:23.438Z,67.64
2022-10-31T02:49:33.663Z,67.70
2022-10-31T02:50:41.159Z,67.68
2022-10-31T02:51:46.449Z,67.67
2022-10-31T02:52:53.287Z,67.77
2022-10-31T02:53:55.491Z,67.70
2022-10-31T02:54:58.397Z,67.61
2022-10-31T02:56:09.838Z,67.76
2022-10-31T02:57:12.248Z,67.64
2022-10-31T02:59:23.027Z,67.89
2022-10-31T03:00:25.687Z,67.74
2022-10-31T03:02:11.178Z,67.61
2022-10-31T03:03:23.954Z,67.79
2022-10-31T03:04:41.411Z,67.67
2022-10-31T03:05:52.242Z,67.80
2022-10-31T03:07:34.105Z,67.80
2022-10-31T03:09:06.770Z,67.77
2022-10-31T03:10:45.010Z,67.78
2022-10-31T03:12:16.268Z,67.86
2022-10-31T03:13:35.377Z,67.80
2022-10-31T03:14:58.131Z,67.86
2022-10-31T03:16:28.580Z,67.85
2022-10-31T03:17:39.570Z,67.83
2022-10-31T03:18:51.351Z,67.89
2022-10-31T03:19:56.812Z,67.72
2022-10-31T03:21:18.449Z,68.08
2022-10-31T03:22:26.497Z,67.75
2022-10-31T03:23:30.987Z,67.85
2022-10-31T03:24:39.894Z,68.11
2022-10-31T03:25:47.991Z,67.85
2022-10-31T03:26:54.633Z,67.89
2022-10-31T03:27:59.210Z,68.02
2022-10-31T03:29:05.977Z,68.00
2022-10-31T03:30:09.976Z,68.17
2022-10-31T03:31:58.470Z,68.01
2022-10-31T03:33:04.825Z,67.98
2022-10-31T03:34:09.948Z,68.09
2022-10-31T03:35:14.350Z,68.13
2022-10-31T03:36:20.781Z,68.02
2022-10-31T03:37:24.506Z,68.16
2022-10-31T03:38:27.886Z,68.11
2022-10-31T03:39:31.880Z,68.04
2022-10-31T03:40:38.843Z,68.02
2022-10-31T03:41:46.213Z,68.15
2022-10-31T03:43:00.858Z,68.11
2022-10-31T03:44:10.473Z,68.21
2022-10-31T03:45:20.662Z,67.98
2022-10-31T03:46:24.112Z,68.05
2022-10-31T03:47:29.444Z,68.20
2022-10-31T03:48:31.820Z,68.05
2022-10-31T03:49:35.801Z,68.12
2022-10-31T03:51:02.042Z,68.12
2022-10-31T03:52:25.704Z,68.27
2022-10-31T03:53:34.285Z,68.33
2022-10-31T03:54:42.578Z,68.07
2022-10-31T03:55:53.672Z,68.12
2022-10-31T03:57:15.996Z,68.23
2022-10-31T03:58:27.067Z,68.10
2022-10-31T03:59:38.261Z,68.33
2022-10-31T04:00:45.597Z,68.20
2022-10-31T04:01:53.097Z,68.33
2022-10-31T04:03:10.645Z,68.12
2022-10-31T04:04:17.727Z,68.08
2022-10-31T04:05:22.558Z,68.23
2022-10-31T04:06:26.801Z,68.07
2022-10-31T04:07:34.609Z,68.21
2022-10-31T04:08:43.557Z,68.06
2022-10-31T04:09:52.579Z,68.15
2022-10-31T04:10:59.159Z,68.29
2022-10-31T04:12:03.994Z,68.19
2022-10-31T04:13:24.323Z,68.25
2022-10-31T04:14:39.754Z,68.15
2022-10-31T04:15:45.483Z,68.09
2022-10-31T04:16:47.950Z,68.04
2022-10-31T04:17:54.363Z,68.06
2022-10-31T04:18:57.201Z,68.13
2022-10-31T04:20:03.342Z,68.13
2022-10-31T04:21:09.199Z,68.16
2022-10-31T04:22:11.612Z,68.09
2022-10-31T04:23:23.356Z,67.97
2022-10-31T04:24:26.748Z,67.91
2022-10-31T04:25:30.991Z,67.84
2022-10-31T04:26:34.819Z,67.84
2022-10-31T04:27:37.208Z,67.91
2022-10-31T04:28:39.456Z,67.82
2022-10-31T04:29:44.379Z,67.82
2022-10-31T04:30:49.385Z,67.81
2022-10-31T04:31:52.590Z,67.83
2022-10-31T04:32:54.903Z,67.96
2022-10-31T04:33:57.799Z,67.86
2022-10-31T04:35:00.110Z,67.87
2022-10-31T04:36:04.136Z,67.87
2022-10-31T04:37:06.395Z,67.97
2022-10-31T04:38:09.017Z,67.96
2022-10-31T04:39:11.255Z,67.90
2022-10-31T04:40:18.196Z,67.93
2022-10-31T04:41:38.585Z,68.02
2022-10-31T04:42:48.539Z,67.74
2022-10-31T04:43:51.214Z,67.76
2022-10-31T04:44:53.497Z,67.90
2022-10-31T04:45:55.783Z,67.95
2022-10-31T04:46:58.512Z,67.88
2022-10-31T04:48:01.035Z,67.89
2022-10-31T04:49:06.115Z,67.87
2022-10-31T04:50:08.742Z,68.00
2022-10-31T04:51:12.918Z,67.93
2022-10-31T04:52:15.866Z,67.99
2022-10-31T04:53:18.864Z,68.02
2022-10-31T04:54:41.072Z,68.15
2022-10-31T04:56:23.600Z,67.88
2022-10-31T04:57:32.020Z,68.27
2022-10-31T04:58:37.543Z,68.00
2022-10-31T04:59:45.869Z,68.22
2022-10-31T05:00:48.156Z,68.14
2022-10-31T05:01:50.632Z,68.02
2022-10-31T05:02:59.690Z,68.08
2022-10-31T05:04:03.520Z,68.13
2022-10-31T05:05:07.600Z,68.22
2022-10-31T05:06:13.130Z,68.22
2022-10-31T05:07:17.435Z,68.12
2022-10-31T05:08:20.672Z,68.27
2022-10-31T05:09:25.901Z,68.05
2022-10-31T05:10:30.844Z,68.17
2022-10-31T05:11:35.141Z,68.20
2022-10-31T05:12:57.145Z,68.36
2022-10-31T05:14:18.218Z,68.42
2022-10-31T05:15:52.305Z,68.33
2022-10-31T05:16:54.568Z,68.37
2022-10-31T05:18:35.254Z,68.45
2022-10-31T05:19:57.406Z,68.38
2022-10-31T05:21:31.953Z,68.28
2022-10-31T05:22:37.477Z,68.36
2022-10-31T05:23:42.996Z,68.65
2022-10-31T05:24:46.737Z,68.45
2022-10-31T05:25:49.196Z,68.33
2022-10-31T05:26:51.478Z,68.36
2022-10-31T05:27:55.516Z,68.42
2022-10-31T05:28:57.862Z,68.31
2022-10-31T05:31:22.783Z,68.48
2022-10-31T05:32:26.301Z,68.28
2022-10-31T05:33:47.380Z,68.27
2022-10-31T05:35:10.512Z,68.25
2022-10-31T05:36:35.502Z,68.09
2022-10-31T05:37:47.584Z,68.09
2022-10-31T05:38:49.845Z,68.02
2022-10-31T05:40:01.236Z,67.92
2022-10-31T05:41:07.087Z,67.93
2022-10-31T05:42:09.905Z,67.84
2022-10-31T05:43:12.158Z,68.03
2022-10-31T05:44:14.703Z,67.99
2022-10-31T05:45:29.675Z,67.94
2022-10-31T05:46:35.507Z,67.80
2022-10-31T05:48:00.117Z,67.76
2022-10-31T05:49:24.232Z,67.82
2022-10-31T05:50:55.471Z,67.89
2022-10-31T05:51:59.147Z,67.77
2022-10-31T05:53:10.307Z,67.75
2022-10-31T05:54:16.040Z,67.76
2022-10-31T05:55:20.467Z,67.80
2022-10-31T05:56:40.487Z,67.89
2022-10-31T05:57:42.705Z,67.78
2022-10-31T05:58:45.170Z,67.76
2022-10-31T05:59:51.006Z,67.69
2022-10-31T06:01:04.263Z,67.70
2022-10-31T06:02:09.523Z,67.69
2022-10-31T06:03:30.284Z,67.73
2022-10-31T06:04:33.419Z,67.94
2022-10-31T06:05:35.666Z,67.84
2022-10-31T06:06:37.917Z,68.00
2022-10-31T06:07:40.294Z,67.94
2022-10-31T06:08:43.262Z,67.80
2022-10-31T06:09:51.091Z,67.96
2022-10-31T06:10:56.851Z,67.99
2022-10-31T06:12:19.042Z,67.89
2022-10-31T06:13:45.212Z,68.19
2022-10-31T06:14:56.252Z,68.32
2022-10-31T06:15:58.608Z,68.20
2022-10-31T06:17:06.910Z,68.21
2022-10-31T06:18:24.290Z,68.33
2022-10-31T06:19:29.998Z,68.18
2022-10-31T06:20:33.674Z,68.39
2022-10-31T06:21:38.865Z,68.60
2022-10-31T06:22:41.128Z,68.44
2022-10-31T06:23:43.440Z,68.69
2022-10-31T06:25:07.419Z,68.73
2022-10-31T06:26:13.058Z,68.81
2022-10-31T06:27:15.747Z,68.90
2022-10-31T06:28:18.566Z,69.13
2022-10-31T06:29:27.227Z,69.37
2022-10-31T06:30:41.763Z,70.01
2022-10-31T06:31:44.001Z,70.30
2022-10-31T06:32:46.869Z,70.84
2022-10-31T06:33:49.235Z,71.10
2022-10-31T06:34:51.676Z,71.40
2022-10-31T06:35:54.005Z,71.84
2022-10-31T06:36:56.681Z,71.79
2022-10-31T06:38:10.835Z,72.27
2022-10-31T06:39:16.266Z,72.25
2022-10-31T06:40:18.776Z,72.58
2022-10-31T06:41:42.479Z,72.07
2022-10-31T06:42:46.328Z,72.34
2022-10-31T06:43:48.735Z,72.85
2022-10-31T06:45:23.506Z,73.03
2022-10-31T06:46:44.410Z,72.65
2022-10-31T06:48:21.759Z,72.14
2022-10-31T06:49:56.478Z,71.47
2022-10-31T06:51:01.579Z,70.90
2022-10-31T06:52:04.176Z,70.55
2022-10-31T06:53:06.515Z,70.22
2022-10-31T06:54:10.036Z,69.85
2022-10-31T06:55:12.422Z,69.60
2022-10-31T06:56:14.771Z,69.72
2022-10-31T06:57:21.646Z,69.33
2022-10-31T06:58:24.225Z,69.15
2022-10-31T06:59:27.448Z,68.87
2022-10-31T07:00:52.708Z,68.28
2022-10-31T07:01:55.200Z,68.08
2022-10-31T07:03:00.569Z,67.88
2022-10-31T07:04:02.783Z,67.49
2022-10-31T07:05:08.074Z,67.06
2022-10-31T07:06:10.314Z,66.74
2022-10-31T07:07:14.239Z,66.55
2022-10-31T07:08:16.536Z,66.39
2022-10-31T07:09:18.947Z,65.99
2022-10-31T07:10:24.319Z,65.95
2022-10-31T07:11:32.762Z,66.03
2022-10-31T07:12:35.518Z,65.83
2022-10-31T07:13:38.931Z,65.79
2022-10-31T07:14:43.192Z,65.29
2022-10-31T07:15:46.217Z,65.10
2022-10-31T07:16:52.590Z,65.20
2022-10-31T07:18:02.494Z,64.92
2022-10-31T07:19:06.248Z,64.87
2022-10-31T07:20:10.184Z,64.69
2022-10-31T07:21:12.959Z,64.37
2022-10-31T07:22:15.786Z,64.05
2022-10-31T07:23:20.122Z,63.92
2022-10-31T07:24:32.312Z,63.58
2022-10-31T07:25:34.594Z,63.24
2022-10-31T07:26:44.737Z,62.85
2022-10-31T07:27:47.040Z,62.44
2022-10-31T07:28:49.286Z,62.26
2022-10-31T07:29:55.017Z,62.12
2022-10-31T07:30:58.711Z,61.73
2022-10-31T07:32:01.573Z,61.62
2022-10-31T07:33:08.855Z,61.02
2022-10-31T07:34:35.884Z,60.92
2022-10-31T07:35:56.985Z,60.34
2022-10-31T07:37:04.917Z,60.24
2022-10-31T07:38:11.989Z,60.12
2022-10-31T07:39:14.274Z,59.93
2022-10-31T07:40:18.534Z,59.48
2022-10-31T07:41:22.351Z,59.29
2022-10-31T07:42:24.615Z,59.42
2022-10-31T07:43:27.214Z,59.12
2022-10-31T07:45:14.366Z,58.54
2022-10-31T07:46:42.680Z,58.63
2022-10-31T07:48:12.482Z,58.35
2022-10-31T07:49:33.717Z,58.12
2022-10-31T07:51:02.310Z,57.90
2022-10-31T07:52:27.344Z,57.75
2022-10-31T07:53:58.523Z,57.11
2022-10-31T07:55:05.801Z,57.00
2022-10-31T07:56:10.550Z,57.11
2022-10-31T07:57:12.912Z,56.81
2022-10-31T07:58:16.740Z,56.56
2022-10-31T07:59:19.617Z,56.37
2022-10-31T08:00:21.906Z,56.14
2022-10-31T08:01:25.684Z,56.10
2022-10-31T08:02:47.811Z,56.33
2022-10-31T08:04:08.408Z,55.65
2022-10-31T08:05:30.399Z,55.50
2022-10-31T08:07:01.168Z,55.44
2022-10-31T08:08:12.556Z,55.10
2022-10-31T08:09:14.943Z,54.98
2022-10-31T08:10:19.774Z,54.66
2022-10-31T08:11:22.121Z,54.62
2022-10-31T08:12:24.544Z,54.25
2022-10-31T08:13:29.487Z,54.33
2022-10-31T08:14:31.817Z,54.19
2022-10-31T08:15:38.231Z,53.99
2022-10-31T08:16:41.047Z,53.54
2022-10-31T08:17:44.660Z,53.79
2022-10-31T08:18:46.850Z,53.40
2022-10-31T08:19:50.538Z,53.31
2022-10-31T08:20:55.297Z,53.67
2022-10-31T08:21:57.718Z,53.22
2022-10-31T08:23:02.518Z,53.24
2022-10-31T08:24:05.540Z,52.93
2022-10-31T08:25:09.285Z,52.46
2022-10-31T08:26:12.452Z,52.38
2022-10-31T08:27:14.718Z,52.43
2022-10-31T08:28:17.027Z,52.29
2022-10-31T08:29:21.608Z,52.41
2022-10-31T08:30:26.818Z,52.01
2022-10-31T08:31:48.987Z,51.99
2022-10-31T08:33:29.499Z,51.95
2022-10-31T08:34:50.461Z,51.78
2022-10-31T08:36:11.245Z,51.66
2022-10-31T08:37:32.101Z,50.92
2022-10-31T08:38:34.445Z,50.96
2022-10-31T08:39:36.731Z,50.51
2022-10-31T08:40:40.279Z,50.64
2022-10-31T08:41:42.478Z,50.65
2022-10-31T08:42:48.036Z,50.51
2022-10-31T08:43:50.353Z,50.85
2022-10-31T08:44:52.557Z,50.38
2022-10-31T08:45:57.405Z,50.52
2022-10-31T08:47:03.998Z,50.39
2022-10-31T08:48:16.299Z,50.05
2022-10-31T08:49:18.692Z,50.06
2022-10-31T08:50:20.945Z,49.95
2022-10-31T08:51:23.429Z,50.26
2022-10-31T08:52:58.908Z,50.26
2022-10-31T08:53:53.492Z,49.94
2022-10-31T08:55:14.461Z,49.75
2022-10-31T08:57:40.945Z,49.74
2022-10-31T08:58:43.160Z,49.23
2022-10-31T08:59:46.167Z,48.55
2022-10-31T09:01:02.897Z,48.37
2022-10-31T09:02:06.290Z,48.39
2022-10-31T09:03:31.458Z,48.77
2022-10-31T09:04:35.629Z,48.65
2022-10-31T09:05:38.006Z,48.13
2022-10-31T09:06:50.404Z,48.22
2022-10-31T09:08:05.097Z,47.92
2022-10-31T09:09:07.520Z,47.66
2022-10-31T09:10:09.982Z,47.36
2022-10-31T09:11:13.687Z,47.28
2022-10-31T09:12:37.453Z,46.88
2022-10-31T09:13:58.313Z,46.87
2022-10-31T09:15:07.594Z,46.93
2022-10-31T09:16:31.774Z,46.71
2022-10-31T09:17:34.760Z,46.54
2022-10-31T09:18:55.233Z,47.02
2022-10-31T09:19:57.457Z,46.88
2022-10-31T09:21:06.657Z,46.57
2022-10-31T09:22:08.873Z,46.66
2022-10-31T09:23:16.664Z,46.59
2022-10-31T09:24:18.908Z,46.62
2022-10-31T09:25:21.163Z,46.80
2022-10-31T09:26:31.719Z,47.01
2022-10-31T09:27:43.639Z,46.33
2022-10-31T09:28:47.430Z,46.02
2022-10-31T09:29:53.106Z,46.11
2022-10-31T09:30:55.994Z,46.11
2022-10-31T09:32:30.137Z,45.99
2022-10-31T09:33:32.682Z,45.99
2022-10-31T09:34:54.171Z,45.49
2022-10-31T09:35:56.392Z,45.63
2022-10-31T09:36:58.634Z,45.11
2022-10-31T09:38:11.003Z,45.16
2022-10-31T09:39:13.242Z,45.29
2022-10-31T09:40:15.548Z,45.21
2022-10-31T09:41:25.680Z,45.09
2022-10-31T09:43:02.117Z,45.23
2022-10-31T09:44:20.872Z,45.51
2022-10-31T09:45:42.675Z,45.15
2022-10-31T09:47:19.505Z,44.96
2022-10-31T09:49:10.436Z,44.88
2022-10-31T09:50:30.694Z,44.52
2022-10-31T09:51:41.015Z,44.14
2022-10-31T09:53:41.166Z,44.95
2022-10-31T09:55:09.902Z,44.53
2022-10-31T09:56:18.820Z,44.49
2022-10-31T09:57:26.668Z,44.31
2022-10-31T09:58:35.437Z,44.11
2022-10-31T09:59:43.082Z,44.34
2022-10-31T10:00:48.352Z,44.53
2022-10-31T10:01:55.378Z,44.39
2022-10-31T10:03:07.970Z,44.50
2022-10-31T10:04:31.190Z,45.38
2022-10-31T10:05:52.365Z,44.90
2022-10-31T10:07:20.336Z,44.69
2022-10-31T10:08:27.633Z,44.51
2022-10-31T10:10:29.444Z,44.94
2022-10-31T10:12:29.803Z,44.44
2022-10-31T10:13:59.673Z,44.62
2022-10-31T10:15:22.092Z,44.25
2022-10-31T10:16:35.440Z,44.13
2022-10-31T10:17:52.289Z,44.26
2022-10-31T10:19:22.854Z,44.21
2022-10-31T10:20:44.819Z,44.31
2022-10-31T10:21:58.444Z,44.24
2022-10-31T10:23:30.663Z,44.42
2022-10-31T10:24:44.686Z,44.57
2022-10-31T10:25:55.649Z,44.27
2022-10-31T10:27:25.034Z,44.80
2022-10-31T10:28:39.404Z,44.63
2022-10-31T10:30:03.659Z,44.45
2022-10-31T10:31:17.444Z,44.68
2022-10-31T10:32:37.699Z,44.59
2022-10-31T10:34:10.277Z,44.44
2022-10-31T10:35:34.013Z,44.31
2022-10-31T10:36:48.748Z,44.28
2022-10-31T10:37:57.011Z,44.05
2022-10-31T10:39:09.940Z,44.11
2022-10-31T10:40:21.954Z,44.24
2022-10-31T10:41:33.975Z,44.73
2022-10-31T10:42:55.993Z,44.63
2022-10-31T10:43:58.576Z,44.32
2022-10-31T10:45:26.937Z,44.63
2022-10-31T10:47:00.186Z,44.83
2022-10-31T10:48:16.239Z,44.54
2022-10-31T10:49:19.933Z,44.22
2022-10-31T10:50:28.521Z,44.31
2022-10-31T10:53:33.138Z,44.33
2022-10-31T10:54:47.633Z,44.48
2022-10-31T10:56:12.907Z,44.05
2022-10-31T10:57:40.600Z,44.63
2022-10-31T10:58:43.708Z,44.19
2022-10-31T10:59:49.430Z,44.22
2022-10-31T11:00:54.910Z,44.16
2022-10-31T11:01:59.758Z,44.04
2022-10-31T11:03:02.361Z,44.16
2022-10-31T11:04:29.944Z,44.52
2022-10-31T11:05:55.196Z,44.33
2022-10-31T11:07:05.758Z,44.17
2022-10-31T11:08:08.959Z,44.25
2022-10-31T11:09:14.419Z,44.05
2022-10-31T11:10:17.755Z,43.83
2022-10-31T11:11:31.988Z,44.02
2022-10-31T11:12:35.067Z,43.75
2022-10-31T11:13:41.066Z,43.59
2022-10-31T11:15:00.381Z,43.81
2022-10-31T11:16:08.648Z,43.80
2022-10-31T11:17:37.448Z,43.97
2022-10-31T11:18:45.919Z,44.07
2022-10-31T11:19:48.197Z,44.03
2022-10-31T11:20:56.321Z,43.97
2022-10-31T11:22:08.260Z,44.21
2022-10-31T11:23:23.224Z,44.41
2022-10-31T11:24:28.509Z,43.90
2022-10-31T11:25:31.383Z,43.82
2022-10-31T11:26:36.252Z,43.88
2022-10-31T11:27:40.985Z,43.93
2022-10-31T11:28:43.648Z,43.64
2022-10-31T11:29:45.936Z,43.71
2022-10-31T11:30:53.872Z,43.82
2022-10-31T11:32:01.531Z,43.74
2022-10-31T11:33:05.071Z,44.00
2022-10-31T11:34:16.508Z,43.95
2022-10-31T11:35:20.967Z,44.15
2022-10-31T11:36:31.654Z,44.20
2022-10-31T11:37:36.749Z,44.07
2022-10-31T11:38:44.004Z,44.19
2022-10-31T11:39:54.495Z,44.36
2022-10-31T11:41:00.988Z,44.45
2022-10-31T11:42:08.694Z,44.66
2022-10-31T11:43:18.871Z,44.05
2022-10-31T11:44:33.731Z,44.18
2022-10-31T11:45:37.910Z,44.19
2022-10-31T11:46:50.072Z,44.04
2022-10-31T11:47:59.625Z,43.80
2022-10-31T11:49:06.574Z,44.01
2022-10-31T11:50:19.242Z,44.12
2022-10-31T11:51:31.507Z,44.30
2022-10-31T11:52:33.781Z,44.52
2022-10-31T11:53:36.285Z,44.15
2022-10-31T11:54:56.634Z,44.41
2022-10-31T11:56:17.217Z,44.41
2022-10-31T11:57:36.123Z,44.27
2022-10-31T11:58:38.375Z,44.61
2022-10-31T11:59:40.598Z,45.08
2022-10-31T12:00:51.034Z,44.99
2022-10-31T12:01:54.679Z,44.94
2022-10-31T12:03:21.530Z,44.72
2022-10-31T12:04:41.451Z,45.15
2022-10-31T12:05:47.380Z,44.86
2022-10-31T12:06:51.159Z,45.31
2022-10-31T12:07:53.334Z,45.42
2022-10-31T12:08:55.575Z,45.33
2022-10-31T12:09:58.696Z,45.66
2022-10-31T12:11:16.748Z,45.13
2022-10-31T12:12:31.987Z,45.33
2022-10-31T12:13:46.224Z,45.53
2022-10-31T12:15:16.627Z,45.28
2022-10-31T12:16:43.279Z,45.71
2022-10-31T12:17:59.723Z,46.08
2022-10-31T12:19:11.303Z,45.37
2022-10-31T12:20:24.094Z,45.31
2022-10-31T12:21:41.448Z,45.40
2022-10-31T12:22:48.816Z,45.28
2022-10-31T12:24:09.621Z,44.91
2022-10-31T12:25:44.864Z,45.34
2022-10-31T12:27:25.576Z,44.95
2022-10-31T12:28:47.199Z,45.09
2022-10-31T12:30:04.101Z,44.95
2022-10-31T12:31:24.285Z,45.38
2022-10-31T12:32:39.393Z,45.22
2022-10-31T12:33:53.340Z,45.14
2022-10-31T12:35:24.208Z,45.46
2022-10-31T12:36:54.852Z,45.00
2022-10-31T12:38:00.258Z,44.93
2022-10-31T12:39:02.761Z,44.67
2022-10-31T12:40:37.059Z,45.13
2022-10-31T12:41:58.131Z,44.69
2022-10-31T12:43:18.106Z,44.69
2022-10-31T12:44:45.269Z,45.17
2022-10-31T12:45:56.630Z,45.31
2022-10-31T12:47:23.729Z,45.45
2022-10-31T12:48:42.083Z,45.68
2022-10-31T12:50:00.278Z,45.96
2022-10-31T12:51:27.339Z,46.05
2022-10-31T12:52:41.805Z,45.71
2022-10-31T12:53:57.738Z,46.03
2022-10-31T12:55:15.088Z,45.80
2022-10-31T12:56:39.223Z,45.71
2022-10-31T12:57:46.150Z,45.89
2022-10-31T12:58:58.195Z,45.83
2022-10-31T13:00:21.065Z,46.22
2022-10-31T13:01:40.557Z,46.57
2022-10-31T13:02:49.552Z,46.60
2022-10-31T13:04:07.035Z,46.46
2022-10-31T13:05:23.293Z,46.21
2022-10-31T13:06:35.044Z,46.26
2022-10-31T13:07:49.242Z,45.92
2022-10-31T13:08:56.143Z,46.48
2022-10-31T13:10:02.304Z,46.26
2022-10-31T13:11:16.003Z,46.22
2022-10-31T13:12:22.027Z,46.01
2022-10-31T13:13:28.589Z,45.98
2022-10-31T13:14:55.790Z,45.83
2022-10-31T13:16:04.530Z,45.48
2022-10-31T13:17:13.152Z,45.52
2022-10-31T13:18:27.863Z,45.77
2022-10-31T13:19:44.475Z,45.71
2022-10-31T13:20:54.619Z,45.65
2022-10-31T13:22:21.785Z,45.63
2022-10-31T13:23:49.194Z,45.98
2022-10-31T13:24:58.088Z,45.65
2022-10-31T13:26:07.899Z,45.73
2022-10-31T13:27:32.034Z,45.98
2022-10-31T13:30:03.420Z,46.42
2022-10-31T13:31:05.775Z,46.27
2022-10-31T13:32:11.147Z,46.73
2022-10-31T13:33:37.078Z,46.63
2022-10-31T13:34:47.931Z,46.47
2022-10-31T13:36:17.974Z,46.76
2022-10-31T13:37:41.984Z,46.55
2022-10-31T13:38:54.694Z,46.75
2022-10-31T13:40:11.906Z,46.78
2022-10-31T13:41:43.120Z,46.78
2022-10-31T13:43:08.693Z,46.70
2022-10-31T13:44:27.749Z,46.78
2022-10-31T13:45:29.926Z,46.71
2022-10-31T13:46:32.115Z,46.72
2022-10-31T13:47:34.373Z,46.57
2022-10-31T13:48:42.998Z,46.85
2022-10-31T13:49:46.037Z,46.66
2022-10-31T13:51:09.779Z,46.95
2022-10-31T13:52:12.176Z,46.49
2022-10-31T13:53:21.266Z,46.76
2022-10-31T13:54:35.433Z,46.77
2022-10-31T13:55:39.875Z,46.48
2022-10-31T13:56:42.240Z,46.88
2022-10-31T13:57:45.516Z,46.61
2022-10-31T13:59:10.369Z,46.64
2022-10-31T14:00:21.785Z,46.36
2022-10-31T14:01:24.472Z,46.45
2022-10-31T14:02:37.639Z,46.54
2022-10-31T14:04:04.988Z,46.73
2022-10-31T14:05:27.606Z,46.80
2022-10-31T14:07:06.419Z,46.58
2022-10-31T14:08:21.762Z,46.87
2022-10-31T14:09:34.495Z,46.86
2022-10-31T14:10:39.823Z,46.74
2022-10-31T14:11:47.735Z,46.77
2022-10-31T14:12:51.821Z,46.77
2022-10-31T14:13:58.295Z,46.56
2022-10-31T14:15:14.110Z,46.70
2022-10-31T14:16:25.048Z,46.54
2022-10-31T14:17:34.029Z,46.76
2022-10-31T14:18:40.792Z,47.04
2022-10-31T14:19:43.060Z,46.98
2022-10-31T14:20:47.070Z,46.75
2022-10-31T14:21:50.556Z,47.00
2022-10-31T14:22:53.040Z,47.17
2022-10-31T14:23:56.643Z,47.21
2022-10-31T14:24:59.008Z,47.12
2022-10-31T14:26:29.667Z,47.46
2022-10-31T14:27:35.480Z,47.31
2022-10-31T14:28:37.844Z,47.42
2022-10-31T14:29:40.164Z,47.27
2022-10-31T14:30:55.912Z,47.17
2022-10-31T14:32:03.484Z,47.20
2022-10-31T14:33:20.673Z,47.48
2022-10-31T14:34:25.781Z,47.44
2022-10-31T14:35:47.729Z,47.69
2022-10-31T14:37:21.257Z,47.45
2022-10-31T14:39:02.837Z,47.48
2022-10-31T14:40:13.984Z,47.55
2022-10-31T14:41:34.982Z,47.66
2022-10-31T14:42:46.245Z,47.90
2022-10-31T14:44:22.088Z,47.89
2022-10-31T14:45:51.829Z,47.95
2022-10-31T14:47:10.922Z,48.13
2022-10-31T14:48:49.244Z,48.24
2022-10-31T14:50:25.383Z,48.18
2022-10-31T14:51:37.420Z,48.13
2022-10-31T14:52:42.802Z,48.36
2022-10-31T14:53:49.453Z,48.38
2022-10-31T14:54:57.837Z,48.46
2022-10-31T14:56:05.791Z,48.09
2022-10-31T14:57:17.812Z,48.41
2022-10-31T14:58:44.120Z,48.22
2022-10-31T15:00:02.695Z,48.36
2022-10-31T15:01:08.317Z,48.67
2022-10-31T15:02:49.169Z,48.53
2022-10-31T15:04:27.995Z,48.39
2022-10-31T15:05:24.411Z,48.72
2022-10-31T15:06:27.108Z,48.84
2022-10-31T15:07:32.435Z,48.86
2022-10-31T15:08:50.252Z,48.80
2022-10-31T15:10:02.846Z,48.71
2022-10-31T15:11:37.681Z,49.19
2022-10-31T15:12:39.927Z,49.33
2022-10-31T15:13:44.321Z,49.42
2022-10-31T15:15:54.970Z,49.41
2022-10-31T15:17:03.750Z,49.43
2022-10-31T15:18:07.436Z,49.39
2022-10-31T15:19:13.885Z,49.74
2022-10-31T15:20:22.980Z,49.55
2022-10-31T15:21:29.305Z,50.11